sensor_id;sensor_type;location;lat;lon;timestamp;P1;durP1;ratioP1;P2;durP2;ratioP2
68593;SDS011;55563;52.416;13.548;2024-03-08T00:00:39;8.80;;;4.00;;
68593;SDS011;55563;52.416;13.548;2024-03-08T00:02:42;12.15;;;4.43;;
68593;SDS011;55563;52.416;13.548;2024-03-08T00:04:45;8.55;;;4.00;;
68593;SDS011;55563;52.416;13.548;2024-03-08T00:06:46;9.43;;;4.30;;
68593;SDS011;55563;52.416;13.548;2024-03-08T00:08:48;8.63;;;4.20;;
68593;SDS011;55563;52.416;13.548;2024-03-08T00:10:48;7.80;;;3.92;;
68593;SDS011;55563;52.416;13.548;2024-03-08T00:12:49;9.20;;;4.07;;
68593;SDS011;55563;52.416;13.548;2024-03-08T00:14:52;9.48;;;4.38;;
68593;SDS011;55563;52.416;13.548;2024-03-08T00:16:54;7.18;;;3.78;;
68593;SDS011;55563;52.416;13.548;2024-03-08T00:18:55;9.93;;;4.35;;
68593;SDS011;55563;52.416;13.548;2024-03-08T00:20:55;8.98;;;4.53;;
68593;SDS011;55563;52.416;13.548;2024-03-08T00:22:56;8.82;;;4.13;;
68593;SDS011;55563;52.416;13.548;2024-03-08T00:24:58;7.75;;;4.00;;
68593;SDS011;55563;52.416;13.548;2024-03-08T00:26:58;9.35;;;4.65;;
68593;SDS011;55563;52.416;13.548;2024-03-08T00:28:59;7.57;;;4.00;;
68593;SDS011;55563;52.416;13.548;2024-03-08T00:31:00;9.38;;;3.95;;
68593;SDS011;55563;52.416;13.548;2024-03-08T00:33:00;8.10;;;4.18;;
68593;SDS011;55563;52.416;13.548;2024-03-08T00:35:02;9.35;;;3.95;;
68593;SDS011;55563;52.416;13.548;2024-03-08T00:37:03;8.82;;;4.35;;
68593;SDS011;55563;52.416;13.548;2024-03-08T00:39:04;8.60;;;4.03;;
68593;SDS011;55563;52.416;13.548;2024-03-08T00:41:06;8.50;;;4.38;;
68593;SDS011;55563;52.416;13.548;2024-03-08T00:43:07;8.05;;;4.30;;
68593;SDS011;55563;52.416;13.548;2024-03-08T00:45:09;8.98;;;4.32;;
68593;SDS011;55563;52.416;13.548;2024-03-08T00:47:10;9.00;;;4.18;;
68593;SDS011;55563;52.416;13.548;2024-03-08T00:49:11;9.55;;;4.55;;
68593;SDS011;55563;52.416;13.548;2024-03-08T00:51:12;7.30;;;3.95;;
68593;SDS011;55563;52.416;13.548;2024-03-08T00:53:13;9.50;;;4.53;;
68593;SDS011;55563;52.416;13.548;2024-03-08T00:55:13;8.38;;;4.35;;
68593;SDS011;55563;52.416;13.548;2024-03-08T00:57:14;9.45;;;4.00;;
68593;SDS011;55563;52.416;13.548;2024-03-08T00:59:15;10.00;;;3.80;;
68593;SDS011;55563;52.416;13.548;2024-03-08T01:01:15;7.30;;;4.05;;
68593;SDS011;55563;52.416;13.548;2024-03-08T01:03:18;8.43;;;3.90;;
68593;SDS011;55563;52.416;13.548;2024-03-08T01:05:19;7.50;;;4.20;;
68593;SDS011;55563;52.416;13.548;2024-03-08T01:07:19;8.15;;;4.07;;
68593;SDS011;55563;52.416;13.548;2024-03-08T01:09:20;8.32;;;4.07;;
68593;SDS011;55563;52.416;13.548;2024-03-08T01:11:22;7.95;;;3.95;;
68593;SDS011;55563;52.416;13.548;2024-03-08T01:13:22;8.63;;;3.72;;
68593;SDS011;55563;52.416;13.548;2024-03-08T01:15:23;10.35;;;3.97;;
68593;SDS011;55563;52.416;13.548;2024-03-08T01:17:24;9.25;;;4.35;;
68593;SDS011;55563;52.416;13.548;2024-03-08T01:19:24;8.85;;;4.15;;
68593;SDS011;55563;52.416;13.548;2024-03-08T01:21:25;8.55;;;4.05;;
68593;SDS011;55563;52.416;13.548;2024-03-08T01:23:26;6.93;;;3.63;;
68593;SDS011;55563;52.416;13.548;2024-03-08T01:25:27;9.40;;;4.13;;
68593;SDS011;55563;52.416;13.548;2024-03-08T01:27:27;8.85;;;4.30;;
68593;SDS011;55563;52.416;13.548;2024-03-08T01:29:28;10.27;;;4.45;;
68593;SDS011;55563;52.416;13.548;2024-03-08T01:31:30;9.45;;;4.68;;
68593;SDS011;55563;52.416;13.548;2024-03-08T01:33:32;7.25;;;3.60;;
68593;SDS011;55563;52.416;13.548;2024-03-08T01:35:33;9.75;;;4.22;;
68593;SDS011;55563;52.416;13.548;2024-03-08T01:37:48;8.60;;;4.60;;
68593;SDS011;55563;52.416;13.548;2024-03-08T01:39:58;8.68;;;4.07;;
68593;SDS011;55563;52.416;13.548;2024-03-08T01:41:59;9.07;;;4.22;;
68593;SDS011;55563;52.416;13.548;2024-03-08T01:44:14;8.52;;;4.47;;
68593;SDS011;55563;52.416;13.548;2024-03-08T01:46:59;8.60;;;3.95;;
68593;SDS011;55563;52.416;13.548;2024-03-08T01:49:00;7.70;;;3.92;;
68593;SDS011;55563;52.416;13.548;2024-03-08T01:51:01;8.02;;;4.18;;
68593;SDS011;55563;52.416;13.548;2024-03-08T01:53:03;8.40;;;4.13;;
68593;SDS011;55563;52.416;13.548;2024-03-08T01:57:09;6.63;;;3.70;;
68593;SDS011;55563;52.416;13.548;2024-03-08T01:59:15;9.05;;;3.92;;
68593;SDS011;55563;52.416;13.548;2024-03-08T02:01:20;7.82;;;3.65;;
68593;SDS011;55563;52.416;13.548;2024-03-08T02:03:24;8.23;;;3.63;;
68593;SDS011;55563;52.416;13.548;2024-03-08T02:05:28;8.13;;;3.80;;
68593;SDS011;55563;52.416;13.548;2024-03-08T02:07:34;7.80;;;4.00;;
68593;SDS011;55563;52.416;13.548;2024-03-08T02:09:44;7.63;;;3.85;;
68593;SDS011;55563;52.416;13.548;2024-03-08T02:11:49;10.55;;;4.50;;
68593;SDS011;55563;52.416;13.548;2024-03-08T02:13:53;10.05;;;4.88;;
68593;SDS011;55563;52.416;13.548;2024-03-08T02:15:59;7.50;;;4.07;;
68593;SDS011;55563;52.416;13.548;2024-03-08T02:18:06;7.22;;;4.13;;
68593;SDS011;55563;52.416;13.548;2024-03-08T02:20:13;8.25;;;4.30;;
68593;SDS011;55563;52.416;13.548;2024-03-08T02:22:14;8.98;;;3.60;;
68593;SDS011;55563;52.416;13.548;2024-03-08T02:24:21;8.18;;;4.38;;
68593;SDS011;55563;52.416;13.548;2024-03-08T02:26:26;12.25;;;4.15;;
68593;SDS011;55563;52.416;13.548;2024-03-08T02:28:29;9.93;;;4.30;;
68593;SDS011;55563;52.416;13.548;2024-03-08T02:30:34;7.90;;;3.58;;
68593;SDS011;55563;52.416;13.548;2024-03-08T02:32:39;8.75;;;4.45;;
68593;SDS011;55563;52.416;13.548;2024-03-08T02:34:42;8.10;;;3.80;;
68593;SDS011;55563;52.416;13.548;2024-03-08T02:36:49;9.07;;;4.53;;
68593;SDS011;55563;52.416;13.548;2024-03-08T02:38:52;8.93;;;4.43;;
68593;SDS011;55563;52.416;13.548;2024-03-08T02:40:57;7.72;;;3.88;;
68593;SDS011;55563;52.416;13.548;2024-03-08T02:43:03;8.57;;;4.03;;
68593;SDS011;55563;52.416;13.548;2024-03-08T02:45:08;7.97;;;3.78;;
68593;SDS011;55563;52.416;13.548;2024-03-08T02:47:11;8.57;;;4.10;;
68593;SDS011;55563;52.416;13.548;2024-03-08T02:49:17;10.45;;;4.70;;
68593;SDS011;55563;52.416;13.548;2024-03-08T02:51:20;10.13;;;4.70;;
68593;SDS011;55563;52.416;13.548;2024-03-08T02:53:27;8.55;;;4.05;;
68593;SDS011;55563;52.416;13.548;2024-03-08T02:55:31;8.68;;;4.25;;
68593;SDS011;55563;52.416;13.548;2024-03-08T02:57:45;10.00;;;4.38;;
68593;SDS011;55563;52.416;13.548;2024-03-08T02:59:50;10.23;;;5.10;;
68593;SDS011;55563;52.416;13.548;2024-03-08T03:01:55;7.68;;;3.83;;
68593;SDS011;55563;52.416;13.548;2024-03-08T03:03:59;9.35;;;4.63;;
68593;SDS011;55563;52.416;13.548;2024-03-08T03:06:03;8.38;;;4.43;;
68593;SDS011;55563;52.416;13.548;2024-03-08T03:08:07;8.25;;;4.32;;
68593;SDS011;55563;52.416;13.548;2024-03-08T03:10:12;8.52;;;4.32;;
68593;SDS011;55563;52.416;13.548;2024-03-08T03:12:15;9.32;;;4.38;;
68593;SDS011;55563;52.416;13.548;2024-03-08T03:14:21;8.43;;;4.30;;
68593;SDS011;55563;52.416;13.548;2024-03-08T03:16:25;9.45;;;4.78;;
68593;SDS011;55563;52.416;13.548;2024-03-08T03:18:29;8.13;;;3.70;;
68593;SDS011;55563;52.416;13.548;2024-03-08T03:20:32;7.90;;;4.03;;
68593;SDS011;55563;52.416;13.548;2024-03-08T03:22:42;9.85;;;4.10;;
68593;SDS011;55563;52.416;13.548;2024-03-08T03:24:50;8.65;;;4.22;;
68593;SDS011;55563;52.416;13.548;2024-03-08T03:26:55;12.18;;;4.78;;
68593;SDS011;55563;52.416;13.548;2024-03-08T03:29:02;10.02;;;3.95;;
68593;SDS011;55563;52.416;13.548;2024-03-08T03:31:06;7.80;;;3.85;;
68593;SDS011;55563;52.416;13.548;2024-03-08T03:33:10;8.90;;;4.53;;
68593;SDS011;55563;52.416;13.548;2024-03-08T03:35:22;7.43;;;4.10;;
68593;SDS011;55563;52.416;13.548;2024-03-08T03:37:25;8.32;;;4.50;;
68593;SDS011;55563;52.416;13.548;2024-03-08T03:39:27;7.60;;;4.28;;
68593;SDS011;55563;52.416;13.548;2024-03-08T03:41:33;7.57;;;3.40;;
68593;SDS011;55563;52.416;13.548;2024-03-08T03:43:39;7.85;;;4.25;;
68593;SDS011;55563;52.416;13.548;2024-03-08T03:45:42;6.57;;;3.40;;
68593;SDS011;55563;52.416;13.548;2024-03-08T03:47:45;9.07;;;4.60;;
68593;SDS011;55563;52.416;13.548;2024-03-08T03:49:49;8.02;;;4.32;;
68593;SDS011;55563;52.416;13.548;2024-03-08T03:51:53;9.18;;;4.15;;
68593;SDS011;55563;52.416;13.548;2024-03-08T03:53:56;9.15;;;4.25;;
68593;SDS011;55563;52.416;13.548;2024-03-08T03:56:01;9.38;;;4.45;;
68593;SDS011;55563;52.416;13.548;2024-03-08T03:58:10;9.25;;;4.38;;
68593;SDS011;55563;52.416;13.548;2024-03-08T04:00:13;8.70;;;3.97;;
68593;SDS011;55563;52.416;13.548;2024-03-08T04:02:17;8.25;;;4.43;;
68593;SDS011;55563;52.416;13.548;2024-03-08T05:04:21;6.00;;;3.25;;
68593;SDS011;55563;52.416;13.548;2024-03-08T05:06:22;6.82;;;3.47;;
68593;SDS011;55563;52.416;13.548;2024-03-08T05:08:23;9.70;;;5.20;;
68593;SDS011;55563;52.416;13.548;2024-03-08T05:10:24;8.82;;;4.72;;
68593;SDS011;55563;52.416;13.548;2024-03-08T05:12:24;10.02;;;4.88;;
68593;SDS011;55563;52.416;13.548;2024-03-08T05:14:25;10.52;;;5.05;;
68593;SDS011;55563;52.416;13.548;2024-03-08T05:16:26;8.90;;;4.47;;
68593;SDS011;55563;52.416;13.548;2024-03-08T05:18:26;10.73;;;4.53;;
68593;SDS011;55563;52.416;13.548;2024-03-08T05:20:28;9.55;;;4.93;;
68593;SDS011;55563;52.416;13.548;2024-03-08T05:22:29;12.15;;;4.72;;
68593;SDS011;55563;52.416;13.548;2024-03-08T05:24:29;9.52;;;5.03;;
68593;SDS011;55563;52.416;13.548;2024-03-08T05:26:30;10.07;;;5.00;;
68593;SDS011;55563;52.416;13.548;2024-03-08T05:28:31;9.98;;;5.35;;
68593;SDS011;55563;52.416;13.548;2024-03-08T05:30:31;10.55;;;5.03;;
68593;SDS011;55563;52.416;13.548;2024-03-08T05:32:32;10.60;;;4.97;;
68593;SDS011;55563;52.416;13.548;2024-03-08T05:34:32;10.02;;;4.90;;
68593;SDS011;55563;52.416;13.548;2024-03-08T05:36:33;12.00;;;5.00;;
68593;SDS011;55563;52.416;13.548;2024-03-08T05:38:33;10.10;;;5.00;;
68593;SDS011;55563;52.416;13.548;2024-03-08T05:40:34;12.18;;;6.22;;
68593;SDS011;55563;52.416;13.548;2024-03-08T05:42:35;8.98;;;5.05;;
68593;SDS011;55563;52.416;13.548;2024-03-08T05:44:37;9.73;;;4.93;;
68593;SDS011;55563;52.416;13.548;2024-03-08T05:46:38;11.18;;;4.88;;
68593;SDS011;55563;52.416;13.548;2024-03-08T05:48:39;10.77;;;5.35;;
68593;SDS011;55563;52.416;13.548;2024-03-08T05:50:40;10.43;;;5.43;;
68593;SDS011;55563;52.416;13.548;2024-03-08T05:52:40;9.70;;;4.78;;
68593;SDS011;55563;52.416;13.548;2024-03-08T05:54:41;11.80;;;5.47;;
68593;SDS011;55563;52.416;13.548;2024-03-08T05:56:43;12.85;;;5.40;;
68593;SDS011;55563;52.416;13.548;2024-03-08T05:58:44;11.18;;;5.35;;
68593;SDS011;55563;52.416;13.548;2024-03-08T06:02:46;7.68;;;4.53;;
68593;SDS011;55563;52.416;13.548;2024-03-08T06:04:47;9.30;;;5.15;;
68593;SDS011;55563;52.416;13.548;2024-03-08T06:06:47;9.02;;;4.90;;
68593;SDS011;55563;52.416;13.548;2024-03-08T06:08:48;9.48;;;4.97;;
68593;SDS011;55563;52.416;13.548;2024-03-08T06:10:49;13.27;;;5.38;;
68593;SDS011;55563;52.416;13.548;2024-03-08T06:12:53;9.63;;;5.13;;
68593;SDS011;55563;52.416;13.548;2024-03-08T06:16:55;8.43;;;4.85;;
68593;SDS011;55563;52.416;13.548;2024-03-08T06:18:56;10.48;;;5.50;;
68593;SDS011;55563;52.416;13.548;2024-03-08T06:20:57;13.48;;;6.50;;
68593;SDS011;55563;52.416;13.548;2024-03-08T06:22:58;11.32;;;6.22;;
68593;SDS011;55563;52.416;13.548;2024-03-08T06:24:58;9.35;;;5.82;;
68593;SDS011;55563;52.416;13.548;2024-03-08T06:26:59;14.98;;;5.70;;
68593;SDS011;55563;52.416;13.548;2024-03-08T06:29:00;14.40;;;5.80;;
68593;SDS011;55563;52.416;13.548;2024-03-08T06:31:01;10.38;;;5.45;;
68593;SDS011;55563;52.416;13.548;2024-03-08T06:33:02;11.05;;;5.68;;
68593;SDS011;55563;52.416;13.548;2024-03-08T06:35:03;12.45;;;5.13;;
68593;SDS011;55563;52.416;13.548;2024-03-08T06:37:06;11.18;;;5.60;;
68593;SDS011;55563;52.416;13.548;2024-03-08T06:39:07;12.68;;;5.65;;
68593;SDS011;55563;52.416;13.548;2024-03-08T06:41:09;11.13;;;5.88;;
68593;SDS011;55563;52.416;13.548;2024-03-08T06:43:15;11.65;;;5.55;;
68593;SDS011;55563;52.416;13.548;2024-03-08T06:45:16;12.23;;;5.28;;
68593;SDS011;55563;52.416;13.548;2024-03-08T06:47:20;12.18;;;6.13;;
68593;SDS011;55563;52.416;13.548;2024-03-08T06:49:21;12.65;;;5.93;;
68593;SDS011;55563;52.416;13.548;2024-03-08T06:51:22;10.50;;;5.75;;
68593;SDS011;55563;52.416;13.548;2024-03-08T06:53:22;12.82;;;6.03;;
68593;SDS011;55563;52.416;13.548;2024-03-08T06:55:24;12.57;;;5.85;;
68593;SDS011;55563;52.416;13.548;2024-03-08T06:57:24;11.93;;;6.03;;
68593;SDS011;55563;52.416;13.548;2024-03-08T06:59:25;10.45;;;4.97;;
68593;SDS011;55563;52.416;13.548;2024-03-08T07:01:26;11.50;;;5.82;;
68593;SDS011;55563;52.416;13.548;2024-03-08T07:03:26;9.70;;;5.00;;
68593;SDS011;55563;52.416;13.548;2024-03-08T07:05:27;10.70;;;5.20;;
68593;SDS011;55563;52.416;13.548;2024-03-08T07:07:29;10.98;;;4.95;;
68593;SDS011;55563;52.416;13.548;2024-03-08T07:09:30;11.23;;;5.72;;
68593;SDS011;55563;52.416;13.548;2024-03-08T07:11:31;11.85;;;6.05;;
68593;SDS011;55563;52.416;13.548;2024-03-08T07:13:32;10.90;;;5.22;;
68593;SDS011;55563;52.416;13.548;2024-03-08T07:15:32;10.77;;;5.07;;
68593;SDS011;55563;52.416;13.548;2024-03-08T07:17:33;11.13;;;5.75;;
68593;SDS011;55563;52.416;13.548;2024-03-08T07:19:35;13.57;;;6.15;;
68593;SDS011;55563;52.416;13.548;2024-03-08T07:21:35;11.63;;;5.82;;
68593;SDS011;55563;52.416;13.548;2024-03-08T07:23:36;12.32;;;5.38;;
68593;SDS011;55563;52.416;13.548;2024-03-08T07:25:57;11.38;;;5.70;;
68593;SDS011;55563;52.416;13.548;2024-03-08T07:27:57;10.38;;;5.57;;
68593;SDS011;55563;52.416;13.548;2024-03-08T07:29:58;12.80;;;6.05;;
68593;SDS011;55563;52.416;13.548;2024-03-08T07:31:58;13.60;;;5.95;;
68593;SDS011;55563;52.416;13.548;2024-03-08T07:34:18;12.32;;;5.55;;
68593;SDS011;55563;52.416;13.548;2024-03-08T07:36:19;12.95;;;6.50;;
68593;SDS011;55563;52.416;13.548;2024-03-08T07:38:19;12.07;;;5.97;;
68593;SDS011;55563;52.416;13.548;2024-03-08T07:40:21;11.32;;;5.40;;
68593;SDS011;55563;52.416;13.548;2024-03-08T07:42:23;10.30;;;5.80;;
68593;SDS011;55563;52.416;13.548;2024-03-08T07:44:24;13.70;;;6.07;;
68593;SDS011;55563;52.416;13.548;2024-03-08T07:46:24;10.65;;;5.75;;
68593;SDS011;55563;52.416;13.548;2024-03-08T07:48:25;11.85;;;6.45;;
68593;SDS011;55563;52.416;13.548;2024-03-08T07:50:26;11.88;;;6.50;;
68593;SDS011;55563;52.416;13.548;2024-03-08T07:52:26;12.13;;;5.85;;
68593;SDS011;55563;52.416;13.548;2024-03-08T07:54:27;13.57;;;6.05;;
68593;SDS011;55563;52.416;13.548;2024-03-08T07:56:27;12.18;;;6.03;;
68593;SDS011;55563;52.416;13.548;2024-03-08T07:58:28;13.77;;;6.15;;
68593;SDS011;55563;52.416;13.548;2024-03-08T08:00:29;15.05;;;6.13;;
68593;SDS011;55563;52.416;13.548;2024-03-08T08:02:31;10.23;;;5.43;;
68593;SDS011;55563;52.416;13.548;2024-03-08T08:04:32;13.20;;;6.50;;
68593;SDS011;55563;52.416;13.548;2024-03-08T08:06:32;11.95;;;5.75;;
68593;SDS011;55563;52.416;13.548;2024-03-08T08:08:33;12.82;;;5.93;;
68593;SDS011;55563;52.416;13.548;2024-03-08T08:10:33;12.40;;;5.80;;
68593;SDS011;55563;52.416;13.548;2024-03-08T08:12:34;12.40;;;5.88;;
68593;SDS011;55563;52.416;13.548;2024-03-08T08:14:35;11.10;;;5.72;;
68593;SDS011;55563;52.416;13.548;2024-03-08T08:16:36;12.07;;;6.38;;
68593;SDS011;55563;52.416;13.548;2024-03-08T08:18:37;13.35;;;6.13;;
68593;SDS011;55563;52.416;13.548;2024-03-08T08:20:38;19.15;;;6.43;;
68593;SDS011;55563;52.416;13.548;2024-03-08T08:22:39;11.43;;;5.38;;
68593;SDS011;55563;52.416;13.548;2024-03-08T08:24:40;12.05;;;6.05;;
68593;SDS011;55563;52.416;13.548;2024-03-08T08:26:41;11.85;;;5.88;;
68593;SDS011;55563;52.416;13.548;2024-03-08T08:28:41;10.70;;;5.80;;
68593;SDS011;55563;52.416;13.548;2024-03-08T08:30:43;12.80;;;6.32;;
68593;SDS011;55563;52.416;13.548;2024-03-08T08:32:44;14.63;;;6.50;;
68593;SDS011;55563;52.416;13.548;2024-03-08T08:34:47;14.77;;;6.78;;
68593;SDS011;55563;52.416;13.548;2024-03-08T08:36:48;11.02;;;5.30;;
68593;SDS011;55563;52.416;13.548;2024-03-08T08:38:48;24.23;;;11.68;;
68593;SDS011;55563;52.416;13.548;2024-03-08T08:40:49;17.38;;;8.02;;
68593;SDS011;55563;52.416;13.548;2024-03-08T08:42:50;13.45;;;6.57;;
68593;SDS011;55563;52.416;13.548;2024-03-08T08:44:50;10.82;;;6.03;;
68593;SDS011;55563;52.416;13.548;2024-03-08T08:46:52;13.93;;;6.43;;
68593;SDS011;55563;52.416;13.548;2024-03-08T08:48:54;11.90;;;6.05;;
68593;SDS011;55563;52.416;13.548;2024-03-08T08:50:54;13.05;;;6.30;;
68593;SDS011;55563;52.416;13.548;2024-03-08T08:52:55;12.68;;;6.22;;
68593;SDS011;55563;52.416;13.548;2024-03-08T08:54:56;13.68;;;6.38;;
68593;SDS011;55563;52.416;13.548;2024-03-08T08:56:56;14.63;;;5.95;;
68593;SDS011;55563;52.416;13.548;2024-03-08T08:58:57;14.57;;;6.15;;
68593;SDS011;55563;52.416;13.548;2024-03-08T09:00:58;14.20;;;6.03;;
68593;SDS011;55563;52.416;13.548;2024-03-08T09:03:00;13.00;;;6.68;;
68593;SDS011;55563;52.416;13.548;2024-03-08T09:05:02;13.05;;;6.65;;
68593;SDS011;55563;52.416;13.548;2024-03-08T09:07:03;13.18;;;6.30;;
68593;SDS011;55563;52.416;13.548;2024-03-08T09:09:06;12.57;;;6.25;;
68593;SDS011;55563;52.416;13.548;2024-03-08T09:11:09;11.68;;;5.55;;
68593;SDS011;55563;52.416;13.548;2024-03-08T09:13:10;12.90;;;6.10;;
68593;SDS011;55563;52.416;13.548;2024-03-08T09:15:11;11.10;;;5.95;;
68593;SDS011;55563;52.416;13.548;2024-03-08T09:17:12;13.25;;;6.05;;
68593;SDS011;55563;52.416;13.548;2024-03-08T09:19:17;10.05;;;5.63;;
68593;SDS011;55563;52.416;13.548;2024-03-08T09:21:19;12.45;;;6.03;;
68593;SDS011;55563;52.416;13.548;2024-03-08T09:23:20;14.93;;;6.38;;
68593;SDS011;55563;52.416;13.548;2024-03-08T09:25:20;13.00;;;6.28;;
68593;SDS011;55563;52.416;13.548;2024-03-08T09:27:21;13.07;;;6.03;;
68593;SDS011;55563;52.416;13.548;2024-03-08T09:29:22;12.38;;;5.75;;
68593;SDS011;55563;52.416;13.548;2024-03-08T09:33:24;10.65;;;5.07;;
68593;SDS011;55563;52.416;13.548;2024-03-08T09:35:25;10.65;;;5.25;;
68593;SDS011;55563;52.416;13.548;2024-03-08T09:37:26;12.07;;;5.57;;
68593;SDS011;55563;52.416;13.548;2024-03-08T09:39:28;10.45;;;5.13;;
68593;SDS011;55563;52.416;13.548;2024-03-08T09:41:29;11.48;;;5.07;;
68593;SDS011;55563;52.416;13.548;2024-03-08T09:43:30;12.50;;;6.22;;
68593;SDS011;55563;52.416;13.548;2024-03-08T09:45:31;10.48;;;5.43;;
68593;SDS011;55563;52.416;13.548;2024-03-08T09:47:35;11.98;;;5.68;;
68593;SDS011;55563;52.416;13.548;2024-03-08T09:49:39;12.00;;;5.57;;
68593;SDS011;55563;52.416;13.548;2024-03-08T09:53:41;10.15;;;5.43;;
68593;SDS011;55563;52.416;13.548;2024-03-08T09:55:42;9.48;;;4.97;;
68593;SDS011;55563;52.416;13.548;2024-03-08T09:57:44;8.63;;;4.72;;
68593;SDS011;55563;52.416;13.548;2024-03-08T10:00:07;10.65;;;5.40;;
68593;SDS011;55563;52.416;13.548;2024-03-08T10:02:18;10.80;;;5.22;;
68593;SDS011;55563;52.416;13.548;2024-03-08T10:04:19;12.40;;;5.78;;
68593;SDS011;55563;52.416;13.548;2024-03-08T10:06:22;11.93;;;5.38;;
68593;SDS011;55563;52.416;13.548;2024-03-08T10:08:24;10.45;;;4.80;;
68593;SDS011;55563;52.416;13.548;2024-03-08T10:10:24;10.38;;;5.00;;
68593;SDS011;55563;52.416;13.548;2024-03-08T10:12:25;9.85;;;4.55;;
68593;SDS011;55563;52.416;13.548;2024-03-08T10:14:26;10.27;;;4.80;;
68593;SDS011;55563;52.416;13.548;2024-03-08T10:16:27;9.98;;;4.60;;
68593;SDS011;55563;52.416;13.548;2024-03-08T10:18:29;9.77;;;4.80;;
68593;SDS011;55563;52.416;13.548;2024-03-08T10:20:30;10.27;;;4.72;;
68593;SDS011;55563;52.416;13.548;2024-03-08T10:22:35;11.32;;;5.20;;
68593;SDS011;55563;52.416;13.548;2024-03-08T10:24:35;10.60;;;4.80;;
68593;SDS011;55563;52.416;13.548;2024-03-08T10:26:36;9.55;;;4.82;;
68593;SDS011;55563;52.416;13.548;2024-03-08T10:28:37;9.25;;;4.38;;
68593;SDS011;55563;52.416;13.548;2024-03-08T10:30:38;9.93;;;5.00;;
68593;SDS011;55563;52.416;13.548;2024-03-08T10:32:39;10.18;;;4.57;;
68593;SDS011;55563;52.416;13.548;2024-03-08T10:34:41;8.38;;;4.28;;
68593;SDS011;55563;52.416;13.548;2024-03-08T10:36:42;9.60;;;4.43;;
68593;SDS011;55563;52.416;13.548;2024-03-08T10:38:43;9.18;;;4.25;;
68593;SDS011;55563;52.416;13.548;2024-03-08T10:40:47;8.98;;;4.38;;
68593;SDS011;55563;52.416;13.548;2024-03-08T10:42:53;9.93;;;4.40;;
68593;SDS011;55563;52.416;13.548;2024-03-08T10:45:00;8.85;;;4.50;;
68593;SDS011;55563;52.416;13.548;2024-03-08T10:47:15;10.93;;;4.53;;
68593;SDS011;55563;52.416;13.548;2024-03-08T10:49:19;9.30;;;4.50;;
68593;SDS011;55563;52.416;13.548;2024-03-08T10:51:25;10.30;;;4.60;;
68593;SDS011;55563;52.416;13.548;2024-03-08T10:53:30;8.65;;;4.40;;
68593;SDS011;55563;52.416;13.548;2024-03-08T10:55:31;8.80;;;4.53;;
68593;SDS011;55563;52.416;13.548;2024-03-08T10:57:33;8.65;;;4.43;;
68593;SDS011;55563;52.416;13.548;2024-03-08T10:59:36;8.98;;;4.82;;
68593;SDS011;55563;52.416;13.548;2024-03-08T11:01:39;10.02;;;4.80;;
68593;SDS011;55563;52.416;13.548;2024-03-08T11:05:44;8.75;;;4.30;;
68593;SDS011;55563;52.416;13.548;2024-03-08T11:07:44;9.70;;;4.75;;
68593;SDS011;55563;52.416;13.548;2024-03-08T11:09:47;7.43;;;4.03;;
68593;SDS011;55563;52.416;13.548;2024-03-08T11:11:48;7.38;;;3.75;;
68593;SDS011;55563;52.416;13.548;2024-03-08T11:13:49;8.57;;;4.55;;
68593;SDS011;55563;52.416;13.548;2024-03-08T11:15:50;8.95;;;3.83;;
68593;SDS011;55563;52.416;13.548;2024-03-08T11:17:50;7.70;;;4.13;;
68593;SDS011;55563;52.416;13.548;2024-03-08T11:19:51;7.88;;;4.05;;
68593;SDS011;55563;52.416;13.548;2024-03-08T11:21:58;7.57;;;3.85;;
68593;SDS011;55563;52.416;13.548;2024-03-08T11:23:59;9.60;;;4.78;;
68593;SDS011;55563;52.416;13.548;2024-03-08T11:26:00;9.85;;;4.25;;
68593;SDS011;55563;52.416;13.548;2024-03-08T11:28:10;8.35;;;4.25;;
68593;SDS011;55563;52.416;13.548;2024-03-08T11:30:17;6.93;;;3.85;;
68593;SDS011;55563;52.416;13.548;2024-03-08T11:32:26;8.25;;;4.53;;
68593;SDS011;55563;52.416;13.548;2024-03-08T11:34:29;8.05;;;4.18;;
68593;SDS011;55563;52.416;13.548;2024-03-08T11:38:39;8.63;;;3.83;;
68593;SDS011;55563;52.416;13.548;2024-03-08T11:40:40;7.28;;;3.47;;
68593;SDS011;55563;52.416;13.548;2024-03-08T11:42:44;8.05;;;3.97;;
68593;SDS011;55563;52.416;13.548;2024-03-08T11:44:50;7.40;;;3.75;;
68593;SDS011;55563;52.416;13.548;2024-03-08T11:46:51;7.47;;;3.33;;
68593;SDS011;55563;52.416;13.548;2024-03-08T11:48:54;5.85;;;3.10;;
68593;SDS011;55563;52.416;13.548;2024-03-08T11:51:03;6.70;;;3.45;;
68593;SDS011;55563;52.416;13.548;2024-03-08T11:53:05;7.65;;;3.50;;
68593;SDS011;55563;52.416;13.548;2024-03-08T11:55:07;6.18;;;3.33;;
68593;SDS011;55563;52.416;13.548;2024-03-08T11:59:11;6.35;;;3.05;;
68593;SDS011;55563;52.416;13.548;2024-03-08T12:01:12;7.80;;;3.63;;
68593;SDS011;55563;52.416;13.548;2024-03-08T12:03:13;6.50;;;3.63;;
68593;SDS011;55563;52.416;13.548;2024-03-08T12:05:14;7.72;;;3.75;;
68593;SDS011;55563;52.416;13.548;2024-03-08T12:07:16;7.05;;;3.67;;
68593;SDS011;55563;52.416;13.548;2024-03-08T12:09:19;6.45;;;3.33;;
68593;SDS011;55563;52.416;13.548;2024-03-08T12:11:22;6.15;;;3.20;;
68593;SDS011;55563;52.416;13.548;2024-03-08T12:13:23;7.18;;;3.30;;
68593;SDS011;55563;52.416;13.548;2024-03-08T12:15:24;9.00;;;3.88;;
68593;SDS011;55563;52.416;13.548;2024-03-08T12:17:25;6.82;;;3.45;;
68593;SDS011;55563;52.416;13.548;2024-03-08T12:19:27;8.18;;;3.83;;
68593;SDS011;55563;52.416;13.548;2024-03-08T12:21:31;7.13;;;3.60;;
68593;SDS011;55563;52.416;13.548;2024-03-08T12:23:33;7.60;;;3.70;;
68593;SDS011;55563;52.416;13.548;2024-03-08T12:25:34;6.78;;;3.83;;
68593;SDS011;55563;52.416;13.548;2024-03-08T12:27:36;7.38;;;3.78;;
68593;SDS011;55563;52.416;13.548;2024-03-08T12:29:38;5.97;;;3.33;;
68593;SDS011;55563;52.416;13.548;2024-03-08T12:31:39;5.82;;;3.13;;
68593;SDS011;55563;52.416;13.548;2024-03-08T12:33:50;8.63;;;3.75;;
68593;SDS011;55563;52.416;13.548;2024-03-08T12:35:52;6.88;;;3.30;;
68593;SDS011;55563;52.416;13.548;2024-03-08T12:37:54;8.10;;;3.65;;
68593;SDS011;55563;52.416;13.548;2024-03-08T12:39:56;6.65;;;3.55;;
68593;SDS011;55563;52.416;13.548;2024-03-08T12:41:58;5.70;;;3.45;;
68593;SDS011;55563;52.416;13.548;2024-03-08T12:44:00;6.80;;;3.38;;
68593;SDS011;55563;52.416;13.548;2024-03-08T12:46:00;6.45;;;3.33;;
68593;SDS011;55563;52.416;13.548;2024-03-08T12:48:01;7.30;;;3.53;;
68593;SDS011;55563;52.416;13.548;2024-03-08T12:50:03;7.35;;;3.22;;
68593;SDS011;55563;52.416;13.548;2024-03-08T12:52:08;7.68;;;3.83;;
68593;SDS011;55563;52.416;13.548;2024-03-08T12:54:10;8.80;;;3.88;;
68593;SDS011;55563;52.416;13.548;2024-03-08T12:56:11;8.55;;;4.07;;
68593;SDS011;55563;52.416;13.548;2024-03-08T12:58:13;7.40;;;3.67;;
68593;SDS011;55563;52.416;13.548;2024-03-08T13:00:13;8.70;;;4.20;;
68593;SDS011;55563;52.416;13.548;2024-03-08T13:02:19;8.13;;;4.13;;
68593;SDS011;55563;52.416;13.548;2024-03-08T13:04:21;8.75;;;4.18;;
68593;SDS011;55563;52.416;13.548;2024-03-08T13:06:21;8.68;;;4.20;;
68593;SDS011;55563;52.416;13.548;2024-03-08T13:08:24;7.85;;;3.85;;
68593;SDS011;55563;52.416;13.548;2024-03-08T13:10:28;8.50;;;4.32;;
68593;SDS011;55563;52.416;13.548;2024-03-08T13:12:28;9.43;;;4.35;;
68593;SDS011;55563;52.416;13.548;2024-03-08T13:14:29;8.45;;;4.18;;
68593;SDS011;55563;52.416;13.548;2024-03-08T13:16:32;7.53;;;3.85;;
68593;SDS011;55563;52.416;13.548;2024-03-08T13:18:35;28.63;;;12.10;;